Time;durP1;ratioP1;P1;durP2;ratioP2;P2;SDS_P1;SDS_P2;PMS_P1;PMS_P2;Temp;Humidity;BMP_temperature;BMP_pressure;BME280_temperature;BME280_humidity;BME280_pressure;Samples;Min_cycle;Max_cycle;Signal;HPM_P1;HPM_P2
2022/08/31 00:04:10;;;;;;;5.40;4.50;;;;;;;15.34;71.88;99189.14;88384;1276;22726;-76
2022/08/31 00:06:21;;;;;;;4.90;4.40;;;;;;;15.34;71.97;99193.92;88417;1275;98594;-76
2022/08/31 00:08:30;;;;;;;5.80;4.80;;;;;;;15.31;71.97;99193.56;88393;1276;22615;-75
2022/08/31 00:10:55;;;;;;;8.70;4.70;;;;;;;15.28;72.01;99192.73;88211;1276;99328;-73
2022/08/31 00:13:03;;;;;;;7.20;4.40;;;;;;;15.23;71.99;99186.83;88482;1273;24301;-75
2022/08/31 00:15:19;;;;;;;7.70;4.90;;;;;;;15.22;72.11;99187.62;88512;1275;23679;-74
2022/08/31 00:17:24;;;;;;;7.20;4.30;;;;;;;15.19;72.18;99182.64;88396;1276;98835;-77
2022/08/31 00:19:32;;;;;;;12.30;4.40;;;;;;;15.18;72.22;99183.25;88453;1275;22581;-77
2022/08/31 00:21:39;;;;;;;10.20;4.40;;;;;;;15.13;72.44;99181.05;88504;1276;22597;-78
2022/08/31 00:23:42;;;;;;;8.60;4.50;;;;;;;15.09;72.29;99182.36;88876;1274;99163;-76
2022/08/31 00:25:47;;;;;;;5.00;4.50;;;;;;;15.05;72.30;99184.40;88510;1276;22733;-75
2022/08/31 00:27:54;;;;;;;11.50;4.50;;;;;;;15.01;72.37;99185.40;88361;1278;22590;-73
2022/08/31 00:29:59;;;;;;;8.00;4.70;;;;;;;14.96;72.33;99185.15;88337;1276;99775;-77
2022/08/31 00:32:04;;;;;;;4.50;4.10;;;;;;;14.93;72.36;99190.70;88625;1273;24775;-76
2022/08/31 00:34:09;;;;;;;5.40;4.90;;;;;;;14.89;72.60;99186.30;88399;1276;26641;-75
2022/08/31 00:36:13;;;;;;;7.40;4.50;;;;;;;14.86;72.61;99186.36;88341;1276;98762;-75
2022/08/31 00:38:15;;;;;;;6.40;4.50;;;;;;;14.81;72.51;99183.45;88404;1276;22889;-75
2022/08/31 00:40:24;;;;;;;5.60;4.30;;;;;;;14.77;72.62;99179.62;88481;1276;24101;-75
2022/08/31 00:42:26;;;;;;;5.20;4.00;;;;;;;14.73;72.43;99180.92;88557;1275;24316;-76
2022/08/31 00:44:42;;;;;;;7.10;4.00;;;;;;;14.69;72.83;99181.73;88474;1274;22717;-76
2022/08/31 00:47:05;;;;;;;5.00;4.00;;;;;;;14.61;72.64;99176.36;88474;1275;98770;-75
2022/08/31 00:49:19;;;;;;;4.90;3.80;;;;;;;14.58;72.78;99180.91;88567;1273;23007;-74
2022/08/31 00:51:44;;;;;;;10.90;3.90;;;;;;;14.52;73.03;99178.10;88672;1274;22803;-75
2022/08/31 00:53:56;;;;;;;6.90;4.40;;;;;;;14.49;72.99;99179.21;88437;1275;98983;-75
2022/08/31 00:56:39;;;;;;;10.70;4.50;;;;;;;14.46;73.14;99178.80;88529;1274;22577;-77
2022/08/31 00:58:58;;;;;;;7.70;4.50;;;;;;;14.45;73.31;99179.95;88480;1274;98972;-75
2022/08/31 01:01:02;;;;;;;10.00;4.60;;;;;;;14.40;72.98;99177.98;88532;1273;22679;-77
2022/08/31 01:03:11;;;;;;;8.00;4.20;;;;;;;14.36;73.10;99173.08;88632;1276;22644;-75
2022/08/31 01:05:45;;;;;;;8.10;4.40;;;;;;;14.37;73.30;99175.68;88341;1276;98637;-77
2022/08/31 01:07:53;;;;;;;8.10;4.70;;;;;;;14.36;73.24;99178.05;88602;1274;22624;-75
2022/08/31 01:10:09;;;;;;;7.00;4.10;;;;;;;14.34;73.06;99179.19;88459;1276;22585;-76
2022/08/31 01:12:11;;;;;;;6.70;4.30;;;;;;;14.33;73.18;99178.40;88675;1273;98631;-75
2022/08/31 01:14:14;;;;;;;5.50;4.40;;;;;;;14.31;73.34;99183.27;88539;1274;22554;-77
2022/08/31 01:16:36;;;;;;;8.80;4.50;;;;;;;14.27;73.23;99189.34;88600;1274;23209;-77
2022/08/31 01:18:46;;;;;;;9.20;4.40;;;;;;;14.23;73.41;99183.91;88776;1273;22578;-75
2022/08/31 01:21:23;;;;;;;5.30;4.30;;;;;;;14.20;73.35;99180.05;88590;1274;22634;-77
2022/08/31 01:23:31;;;;;;;6.90;4.40;;;;;;;14.14;73.41;99178.77;88397;1273;98721;-75
2022/08/31 01:25:35;;;;;;;6.90;3.90;;;;;;;14.13;73.41;99177.62;88749;1274;24308;-75
2022/08/31 01:27:45;;;;;;;6.10;3.70;;;;;;;14.10;73.56;99177.11;89001;1273;23319;-76
2022/08/31 01:29:50;;;;;;;5.20;4.10;;;;;;;13.99;73.43;99160.61;88486;1274;100682;-76
2022/08/31 01:32:24;;;;;;;5.00;3.90;;;;;;;14.03;73.56;99176.43;88675;1273;22562;-77
2022/08/31 01:34:49;;;;;;;7.50;3.70;;;;;;;13.99;73.50;99176.86;88551;1274;99310;-76
2022/08/31 01:36:55;;;;;;;4.60;3.40;;;;;;;13.96;73.69;99173.33;88608;1273;22548;-75
2022/08/31 01:39:17;;;;;;;4.00;3.20;;;;;;;13.92;73.81;99172.71;88413;1276;24213;-75
2022/08/31 01:41:47;;;;;;;3.40;3.00;;;;;;;13.88;73.79;99174.84;88428;1276;98593;-74
2022/08/31 01:44:03;;;;;;;6.30;3.10;;;;;;;13.86;73.88;99173.55;89029;1274;25851;-74
2022/08/31 01:46:19;;;;;;;7.90;2.70;;;;;;;13.83;73.93;99175.00;88515;1275;25388;-76
2022/08/31 01:48:32;;;;;;;6.40;3.10;;;;;;;13.77;73.97;99174.08;88300;1276;98500;-75
2022/08/31 01:50:37;;;;;;;6.70;3.30;;;;;;;13.74;73.89;99169.27;88513;1273;22691;-76
2022/08/31 01:52:47;;;;;;;5.00;2.70;;;;;;;13.77;73.96;99182.02;88322;1276;99327;-75
2022/08/31 01:54:49;;;;;;;3.70;3.00;;;;;;;13.75;74.09;99178.58;88506;1275;23555;-75
2022/08/31 01:56:54;;;;;;;5.40;2.80;;;;;;;13.76;74.06;99179.27;88385;1276;22640;-75
2022/08/31 01:59:20;;;;;;;4.20;3.40;;;;;;;13.77;74.01;99185.04;88355;1276;98706;-75
2022/08/31 02:01:28;;;;;;;4.70;3.10;;;;;;;13.79;74.10;99183.15;88507;1276;22585;-76
2022/08/31 02:03:33;;;;;;;4.70;2.90;;;;;;;13.81;74.25;99179.36;88745;1275;22553;-74
2022/08/31 02:05:40;;;;;;;3.10;2.90;;;;;;;13.87;74.33;99182.89;88562;1275;98913;-75
2022/08/31 02:07:45;;;;;;;5.10;3.40;;;;;;;13.88;74.24;99183.15;88548;1274;22696;-76
2022/08/31 02:09:58;;;;;;;6.70;2.90;;;;;;;13.90;74.28;99184.80;88481;1274;22568;-76
2022/08/31 02:12:03;;;;;;;3.90;2.80;;;;;;;13.91;74.35;99181.73;88390;1274;98655;-74
2022/08/31 02:14:06;;;;;;;3.60;3.10;;;;;;;13.89;74.19;99180.28;88741;1276;22704;-77
2022/08/31 02:16:11;;;;;;;10.30;3.00;;;;;;;13.89;74.37;99178.55;88354;1277;22724;-76
2022/08/31 02:18:13;;;;;;;5.10;3.00;;;;;;;13.89;74.37;99181.00;88418;1274;99377;-75
2022/08/31 02:20:32;;;;;;;3.30;3.00;;;;;;;13.90;74.28;99180.92;88514;1273;22587;-76
2022/08/31 02:22:37;;;;;;;4.80;3.00;;;;;;;13.90;74.46;99174.23;88454;1274;99262;-76
2022/08/31 02:24:48;;;;;;;5.80;3.30;;;;;;;13.90;74.42;99177.55;88313;1278;24230;-77
2022/08/31 02:27:24;;;;;;;4.00;3.20;;;;;;;13.91;74.60;99167.98;88541;1276;23497;-76
2022/08/31 02:29:35;;;;;;;5.30;3.50;;;;;;;13.93;74.52;99173.70;88460;1276;99447;-75
2022/08/31 02:31:49;;;;;;;4.30;2.80;;;;;;;13.93;74.50;99168.73;88467;1276;22599;-75
2022/08/31 02:33:59;;;;;;;5.20;2.80;;;;;;;13.94;74.66;99168.11;88473;1276;22732;-76
2022/08/31 02:36:04;;;;;;;6.10;3.10;;;;;;;13.94;74.64;99172.17;88484;1274;99214;-75
2022/08/31 02:38:43;;;;;;;6.70;3.40;;;;;;;13.93;74.75;99167.30;88477;1274;22567;-75
2022/08/31 02:41:16;;;;;;;5.30;3.20;;;;;;;13.90;74.51;99168.92;88527;1273;98913;-76
2022/08/31 02:43:23;;;;;;;4.00;3.30;;;;;;;13.84;74.70;99169.43;88757;1273;22561;-76
2022/08/31 02:45:56;;;;;;;6.50;2.90;;;;;;;13.78;74.57;99174.36;88725;1273;22690;-76
2022/08/31 02:48:00;;;;;;;4.80;3.20;;;;;;;13.73;74.78;99176.10;88615;1273;98861;-75
2022/08/31 02:50:13;;;;;;;7.50;3.50;;;;;;;13.69;74.86;99171.02;88675;1274;24625;-75
2022/08/31 02:52:57;;;;;;;4.20;3.70;;;;;;;13.69;74.63;99172.96;88580;1274;22623;-76
2022/08/31 02:55:07;;;;;;;9.80;3.70;;;;;;;13.66;74.69;99172.09;88742;1271;22879;-75
2022/08/31 02:57:25;;;;;;;5.80;3.50;;;;;;;13.65;74.85;99173.38;88503;1273;23078;-75
2022/08/31 02:59:28;;;;;;;10.90;3.60;;;;;;;13.63;74.74;99176.83;88520;1271;99601;-77
2022/08/31 03:02:02;;;;;;;5.60;3.80;;;;;;;13.61;74.90;99175.54;88479;1275;22562;-76
2022/08/31 03:04:07;;;;;;;7.20;3.50;;;;;;;13.58;74.96;99173.79;88636;1273;25414;-76
2022/08/31 03:06:16;;;;;;;5.80;3.80;;;;;;;13.51;75.09;99166.39;88755;1273;98578;-77
2022/08/31 03:08:30;;;;;;;4.00;3.70;;;;;;;13.55;74.90;99172.52;88816;1273;24234;-76
2022/08/31 03:10:39;;;;;;;5.20;4.10;;;;;;;13.54;74.97;99174.35;88600;1273;99102;-76
2022/08/31 03:12:51;;;;;;;5.30;3.60;;;;;;;13.53;74.89;99175.46;88668;1274;25268;-78
2022/08/31 03:15:26;;;;;;;6.30;3.30;;;;;;;13.52;75.03;99177.49;88591;1274;22627;-75
2022/08/31 03:17:53;;;;;;;3.70;3.40;;;;;;;13.50;74.96;99175.98;88593;1273;99090;-76
2022/08/31 03:20:15;;;;;;;5.10;3.70;;;;;;;13.47;75.16;99178.29;88549;1274;22592;-76
2022/08/31 03:22:32;;;;;;;5.20;4.00;;;;;;;13.45;75.45;99182.81;88649;1274;22659;-76
2022/08/31 03:24:39;;;;;;;8.60;3.80;;;;;;;13.43;75.37;99179.36;88638;1274;22569;-76
2022/08/31 03:26:41;;;;;;;14.20;3.90;;;;;;;13.41;75.18;99183.18;88685;1273;25411;-76
2022/08/31 03:28:46;;;;;;;13.50;3.60;;;;;;;13.40;75.04;99184.48;88387;1274;99100;-77
2022/08/31 03:30:55;;;;;;;7.80;3.60;;;;;;;13.39;75.29;99183.29;88665;1273;25485;-76
2022/08/31 03:33:22;;;;;;;7.60;4.00;;;;;;;13.38;75.23;99181.24;88621;1274;24228;-77
2022/08/31 03:35:28;;;;;;;10.90;3.60;;;;;;;13.37;75.38;99182.33;88477;1273;99234;-76
2022/08/31 03:37:30;;;;;;;5.00;3.90;;;;;;;13.39;75.36;99185.58;88610;1273;22531;-75
2022/08/31 03:39:55;;;;;;;6.70;4.10;;;;;;;13.40;75.44;99183.64;88492;1275;24230;-76
2022/08/31 03:42:05;;;;;;;7.50;3.70;;;;;;;13.40;75.45;99179.20;88509;1274;99180;-75
2022/08/31 03:44:13;;;;;;;7.50;3.10;;;;;;;13.40;75.48;99175.33;88590;1273;22743;-76
2022/08/31 03:46:24;;;;;;;6.10;3.60;;;;;;;13.39;75.41;99175.69;88517;1273;22560;-76
2022/08/31 03:48:48;;;;;;;;;;;;;;;;;;;;;
2022/08/31 03:50:56;;;;;;;6.60;3.30;;;;;;;13.34;75.43;99177.20;88672;1274;23604;-75
2022/08/31 03:53:12;;;;;;;4.70;3.60;;;;;;;13.31;75.64;99174.73;88618;1273;98898;-75
2022/08/31 03:56:05;;;;;;;5.10;3.40;;;;;;;13.31;75.23;99176.17;88611;1274;22562;-78
2022/08/31 03:58:54;;;;;;;3.50;3.20;;;;;;;13.28;75.56;99173.84;88726;1273;22543;-76
2022/08/31 04:01:39;;;;;;;4.80;4.00;;;;;;;13.26;75.60;99175.52;88783;1274;24133;-77
2022/08/31 04:04:04;;;;;;;12.30;3.80;;;;;;;13.24;75.53;99177.95;88776;1274;22554;-79
2022/08/31 04:06:21;;;;;;;4.30;3.30;;;;;;;13.21;75.71;99177.20;88677;1273;98816;-77
2022/08/31 04:08:34;;;;;;;4.90;4.00;;;;;;;13.19;75.51;99178.55;88755;1274;22600;-77
2022/08/31 04:14:43;;;;;;;5.70;3.60;;;;;;;13.15;75.78;99178.09;88702;1273;22559;-76
2022/08/31 04:17:34;;;;;;;5.20;3.40;;;;;;;13.12;75.84;99172.11;88371;1277;98934;-78
2022/08/31 04:20:26;;;;;;;;;;;;;;;;;;;;;
2022/08/31 04:23:21;;;;;;;;;;;;;;;;;;;;;
2022/08/31 04:26:13;;;;;;;11.70;3.60;;;;;;;13.17;76.07;99178.19;87438;1289;22635;-77
2022/08/31 04:28:25;;;;;;;8.70;3.40;;;;;;;13.19;76.00;99178.92;87628;1288;23546;-76
2022/08/31 04:31:28;;;;;;;11.00;3.50;;;;;;;13.20;76.09;99182.55;87373;1289;98652;-77
2022/08/31 04:33:52;;;;;;;11.70;3.80;;;;;;;13.23;76.01;99185.90;87433;1289;22583;-76
2022/08/31 04:36:44;;;;;;;;;;;;;;;;;;;;;
2022/08/31 04:39:50;;;;;;;20.50;4.40;;;;;;;13.30;76.07;99193.11;87684;1288;22576;-77
2022/08/31 04:42:52;;;;;;;16.10;6.20;;;;;;;13.33;76.40;99197.03;87375;1289;99605;-77
2022/08/31 04:45:30;;;;;;;27.30;5.50;;;;;;;13.39;76.54;99197.63;86954;1295;22879;-78
2022/08/31 04:47:42;;;;;;;25.90;5.40;;;;;;;13.43;76.45;99201.05;86794;1295;99044;-76
2022/08/31 04:50:24;;;;;;;9.80;5.50;;;;;;;13.47;76.52;99200.88;86921;1295;22672;-76
2022/08/31 04:53:26;;;;;;;35.90;7.90;;;;;;;13.51;76.62;99202.58;86964;1294;23375;-76
2022/08/31 04:55:59;;;;;;;18.40;8.00;;;;;;;13.56;76.61;99196.29;87343;1291;25341;-77
2022/08/31 04:58:19;;;;;;;;;;;;;;;;;;;;;
2022/08/31 05:01:01;;;;;;;;;;;;;;;;;;;;;
2022/08/31 05:03:38;;;;;;;15.50;5.40;;;;;;;13.73;76.87;99200.30;87907;1282;22604;-77
2022/08/31 05:05:47;;;;;;;20.20;4.30;;;;;;;13.77;76.85;99205.31;88031;1279;98771;-73
2022/08/31 05:07:49;;;;;;;16.40;4.60;;;;;;;13.81;76.71;99207.41;88194;1279;25172;-74
2022/08/31 05:09:52;;;;;;;20.50;4.60;;;;;;;13.86;76.80;99210.33;88218;1280;23187;-74
2022/08/31 05:11:59;;;;;;;19.30;4.70;;;;;;;13.90;76.83;99211.83;88032;1281;99394;-75
2022/08/31 05:14:05;;;;;;;26.60;4.50;;;;;;;13.96;76.77;99212.92;88131;1281;24401;-74
2022/08/31 05:16:11;;;;;;;10.50;4.70;;;;;;;13.99;76.78;99210.98;88052;1282;24341;-73
2022/08/31 05:18:25;;;;;;;13.60;5.10;;;;;;;14.05;76.80;99215.72;87991;1282;98894;-75
2022/08/31 05:20:26;;;;;;;18.00;4.30;;;;;;;14.11;76.74;99214.15;88021;1281;25272;-74
2022/08/31 05:22:29;;;;;;;14.20;4.40;;;;;;;14.16;76.90;99215.63;87987;1281;22739;-73
2022/08/31 05:24:44;;;;;;;10.60;5.10;;;;;;;14.22;76.78;99215.63;87907;1282;98793;-76
2022/08/31 05:26:50;;;;;;;24.90;4.40;;;;;;;14.28;76.88;99215.62;88218;1280;22599;-73
2022/08/31 05:28:54;;;;;;;11.80;4.30;;;;;;;14.34;76.88;99216.84;88078;1281;99843;-73
2022/08/31 05:31:05;;;;;;;13.90;4.10;;;;;;;14.41;76.88;99218.93;88050;1282;26377;-75
2022/08/31 05:33:11;;;;;;;11.20;3.90;;;;;;;14.47;76.89;99214.29;88189;1281;24802;-73
2022/08/31 05:35:14;;;;;;;20.80;4.60;;;;;;;14.53;76.99;99216.60;88037;1280;98858;-75
2022/08/31 05:37:26;;;;;;;17.20;4.80;;;;;;;14.61;76.84;99218.41;87906;1282;22575;-75
2022/08/31 05:39:30;;;;;;;9.60;4.10;;;;;;;14.68;76.92;99220.34;88265;1279;24590;-75
2022/08/31 05:41:32;;;;;;;24.90;4.60;;;;;;;14.76;76.84;99224.96;87935;1281;99178;-74
2022/08/31 05:43:50;;;;;;;21.20;4.10;;;;;;;14.83;76.83;99227.35;88277;1279;25406;-75
2022/08/31 05:45:53;;;;;;;18.60;4.00;;;;;;;14.91;76.81;99228.69;88281;1279;23259;-75
2022/08/31 05:47:55;;;;;;;13.70;3.60;;;;;;;14.95;76.70;99225.41;88059;1279;99498;-75
2022/08/31 05:50:16;;;;;;;24.10;3.70;;;;;;;14.99;76.73;99227.06;88135;1281;22636;-75
2022/08/31 05:52:21;;;;;;;22.00;4.70;;;;;;;15.06;76.67;99231.27;88040;1281;22598;-76
2022/08/31 05:54:35;;;;;;;5.50;3.50;;;;;;;15.13;76.60;99234.00;87889;1281;98860;-76
2022/08/31 05:56:43;;;;;;;12.10;3.90;;;;;;;15.15;76.35;99226.98;88225;1279;22591;-74
2022/08/31 05:58:47;;;;;;;14.80;3.60;;;;;;;15.23;76.65;99236.39;88108;1282;99135;-73
2022/08/31 06:01:12;;;;;;;13.90;3.80;;;;;;;15.30;76.49;99237.20;88225;1280;24287;-74
2022/08/31 06:03:24;;;;;;;10.30;3.30;;;;;;;15.36;76.52;99236.45;88185;1281;24235;-74
2022/08/31 06:05:35;;;;;;;7.40;3.20;;;;;;;15.41;76.42;99236.11;88193;1279;97791;-75
2022/08/31 06:07:37;;;;;;;9.80;3.30;;;;;;;15.44;76.47;99231.66;88183;1279;22710;-74
2022/08/31 06:09:41;;;;;;;4.50;3.40;;;;;;;15.53;76.35;99239.65;88258;1279;22599;-76
2022/08/31 06:11:43;;;;;;;18.10;3.40;;;;;;;15.58;76.40;99241.23;88099;1279;98963;-75
2022/08/31 06:13:52;;;;;;;12.50;3.20;;;;;;;15.64;76.29;99241.20;88098;1279;25387;-74
2022/08/31 06:16:00;;;;;;;4.20;2.80;;;;;;;15.72;76.31;99244.98;88484;1279;22858;-73
2022/08/31 06:18:14;;;;;;;10.60;3.10;;;;;;;15.81;76.39;99246.55;88586;1279;98676;-75
2022/08/31 06:20:25;;;;;;;16.30;3.60;;;;;;;15.90;76.33;99249.65;88222;1279;23493;-73
2022/08/31 06:22:28;;;;;;;4.80;2.50;;;;;;;15.94;76.16;99254.48;88012;1282;26694;-75
2022/08/31 06:24:32;;;;;;;6.30;3.00;;;;;;;15.97;76.11;99256.50;87953;1281;97647;-77
2022/08/31 06:26:35;;;;;;;5.30;3.00;;;;;;;16.01;76.16;99257.46;88078;1281;22608;-74
2022/08/31 06:28:47;;;;;;;18.00;3.10;;;;;;;16.05;76.08;99261.59;87989;1281;98837;-75
2022/08/31 06:30:52;;;;;;;11.70;3.70;;;;;;;16.07;75.97;99259.89;88048;1281;24301;-75
2022/08/31 06:32:54;;;;;;;9.10;3.00;;;;;;;16.03;75.84;99258.41;87944;1284;22516;-73
2022/08/31 06:34:56;;;;;;;12.00;3.30;;;;;;;16.04;75.89;99266.98;87935;1282;98864;-75
2022/08/31 06:37:14;;;;;;;21.30;3.30;;;;;;;16.05;75.90;99267.66;88205;1279;25409;-75
2022/08/31 06:39:17;;;;;;;17.40;4.20;;;;;;;16.04;75.75;99266.50;88205;1280;24220;-74
2022/08/31 06:41:22;;;;;;;19.20;4.40;;;;;;;16.03;75.88;99264.24;87844;1282;98974;-73
2022/08/31 06:43:35;;;;;;;57.70;4.70;;;;;;;16.03;75.89;99267.75;88569;1279;22528;-75
2022/08/31 06:45:40;;;;;;;6.30;3.20;;;;;;;16.06;75.93;99270.42;88087;1281;22661;-76
2022/08/31 06:47:46;;;;;;;15.70;2.90;;;;;;;16.07;75.90;99269.45;87887;1282;98875;-75
2022/08/31 06:49:47;;;;;;;10.90;2.90;;;;;;;16.10;75.94;99265.36;88087;1281;25601;-74
2022/08/31 06:51:59;;;;;;;7.60;3.30;;;;;;;16.10;75.77;99266.23;88051;1281;24819;-74
2022/08/31 06:54:12;;;;;;;;;;;;;;;16.11;75.86;99268.48;88037;1280;99067;-75
2022/08/31 06:56:24;;;;;;;13.30;3.40;;;;;;;16.12;75.90;99273.71;88096;1280;22802;-75
2022/08/31 06:58:26;;;;;;;25.30;3.80;;;;;;;16.17;75.97;99275.17;88250;1280;23068;-74
2022/08/31 07:00:32;;;;;;;6.90;3.90;;;;;;;16.20;75.83;99274.84;87881;1281;98862;-75
2022/08/31 07:02:34;;;;;;;8.30;3.20;;;;;;;16.20;75.77;99276.25;87900;1284;24404;-74
2022/08/31 07:04:38;;;;;;;19.60;3.50;;;;;;;16.24;75.85;99280.39;88123;1279;22975;-74
2022/08/31 07:06:48;;;;;;;10.10;3.40;;;;;;;16.29;75.82;99281.83;88335;1281;22585;-74
2022/08/31 07:08:56;;;;;;;10.10;3.10;;;;;;;16.32;75.75;99282.32;88644;1282;22594;-76
2022/08/31 07:11:33;;;;;;;10.00;3.40;;;;;;;16.36;75.79;99287.05;88753;1280;98906;-74
2022/08/31 07:13:35;;;;;;;9.00;3.30;;;;;;;16.40;75.72;99289.45;88746;1279;22638;-74
2022/08/31 07:15:40;;;;;;;9.20;3.60;;;;;;;16.42;75.69;99286.66;88649;1281;24203;-75
2022/08/31 07:17:47;;;;;;;13.60;3.90;;;;;;;16.37;75.71;99272.96;88488;1281;98922;-74
2022/08/31 07:19:51;;;;;;;16.20;4.00;;;;;;;16.47;75.69;99283.44;88214;1282;22630;-74
2022/08/31 07:21:56;;;;;;;12.90;3.50;;;;;;;16.50;75.64;99281.66;88314;1280;22641;-73
2022/08/31 07:24:01;;;;;;;19.10;4.20;;;;;;;16.55;75.65;99287.23;88147;1282;100557;-73
2022/08/31 07:26:23;;;;;;;7.60;3.80;;;;;;;16.58;75.70;99284.86;88575;1282;22798;-76
2022/08/31 07:28:32;;;;;;;15.70;3.80;;;;;;;16.62;75.59;99285.98;88831;1279;22616;-75
2022/08/31 07:30:40;;;;;;;16.50;3.90;;;;;;;16.64;75.49;99283.42;88713;1281;97504;-74
2022/08/31 07:32:50;;;;;;;8.30;4.00;;;;;;;16.66;75.55;99285.76;89014;1279;25463;-75
2022/08/31 07:34:51;;;;;;;8.10;4.50;;;;;;;16.67;75.52;99286.87;88646;1281;98833;-75
2022/08/31 07:44:05;;;;;;;6.40;3.80;;;;;;;16.93;75.57;99286.08;88515;1276;22680;-73
2022/08/31 07:46:07;;;;;;;7.80;3.40;;;;;;;17.00;75.58;99288.95;88560;1275;22579;-73
2022/08/31 07:48:09;;;;;;;11.90;3.60;;;;;;;17.07;75.56;99285.98;88525;1274;98874;-75
2022/08/31 07:50:12;;;;;;;8.00;3.80;;;;;;;17.14;75.44;99289.56;88596;1276;22739;-74
2022/08/31 07:52:20;;;;;;;7.40;3.70;;;;;;;17.20;75.25;99286.27;88549;1276;22607;-74
2022/08/31 07:54:28;;;;;;;18.50;3.40;;;;;;;17.26;75.21;99283.06;88462;1274;98649;-74
2022/08/31 07:56:30;;;;;;;6.10;3.60;;;;;;;17.29;75.07;99285.34;88774;1274;22779;-75
2022/08/31 07:58:49;;;;;;;20.00;3.70;;;;;;;17.33;75.11;99288.91;89533;1275;22978;-75
2022/08/31 08:00:50;;;;;;;8.20;3.50;;;;;;;17.40;75.10;99291.84;90288;1274;22694;-75
2022/08/31 08:02:55;;;;;;;11.40;3.70;;;;;;;17.47;75.19;99285.29;90041;1275;22572;-74
2022/08/31 08:04:59;;;;;;;5.80;3.30;;;;;;;17.53;75.03;99282.52;90127;1275;98049;-75
2022/08/31 08:07:04;;;;;;;7.00;3.50;;;;;;;17.59;74.99;99284.95;89848;1276;22564;-74
2022/08/31 08:09:06;;;;;;;8.30;3.60;;;;;;;17.65;74.90;99279.54;89175;1274;23428;-75
2022/08/31 08:11:15;;;;;;;14.60;3.80;;;;;;;17.72;74.80;99278.52;89049;1273;98783;-75
2022/08/31 08:13:18;;;;;;;8.30;3.60;;;;;;;17.80;74.59;99282.85;89072;1274;22547;-74
2022/08/31 08:15:20;;;;;;;4.90;3.60;;;;;;;17.92;74.81;99284.84;89125;1276;22612;-77
2022/08/31 08:17:36;;;;;;;7.20;3.70;;;;;;;18.04;74.77;99280.61;89097;1276;97621;-74
2022/08/31 08:19:37;;;;;;;14.90;3.50;;;;;;;18.13;74.48;99278.85;89327;1275;23030;-74
2022/08/31 08:21:48;;;;;;;10.00;3.60;;;;;;;18.22;74.41;99282.98;89350;1274;22547;-73
2022/08/31 08:23:49;;;;;;;4.50;3.60;;;;;;;18.35;74.36;99288.13;89063;1276;99476;-76
2022/08/31 08:25:51;;;;;;;6.90;3.00;;;;;;;18.41;73.77;99291.05;89320;1276;22683;-74
2022/08/31 08:27:54;;;;;;;11.50;3.20;;;;;;;18.46;73.72;99292.63;88857;1277;22737;-77
2022/08/31 08:29:59;;;;;;;17.40;3.20;;;;;;;18.48;73.30;99291.88;88968;1276;97681;-75
2022/08/31 08:32:01;;;;;;;4.10;3.70;;;;;;;18.51;73.37;99293.98;88725;1276;24310;-75
2022/08/31 08:34:02;;;;;;;4.50;3.10;;;;;;;18.59;73.56;99290.59;88688;1274;25387;-75
2022/08/31 08:36:08;;;;;;;9.80;3.00;;;;;;;18.64;73.42;99291.21;88685;1274;98633;-75
2022/08/31 08:38:10;;;;;;;7.10;2.80;;;;;;;18.67;73.38;99290.16;88656;1274;22631;-75
2022/08/31 08:40:26;;;;;;;10.50;2.90;;;;;;;18.68;73.31;99286.30;88715;1273;25409;-75
2022/08/31 08:42:28;;;;;;;3.50;2.90;;;;;;;18.69;73.26;99283.70;88556;1273;98910;-74
2022/08/31 08:44:34;;;;;;;12.60;3.40;;;;;;;18.76;73.29;99283.22;88611;1274;22626;-75
2022/08/31 08:46:52;;;;;;;10.60;2.70;;;;;;;18.81;73.06;99287.60;88640;1274;22552;-76
2022/08/31 08:48:59;;;;;;;18.20;3.10;;;;;;;18.86;72.87;99289.70;88552;1273;24733;-75
2022/08/31 08:51:03;;;;;;;7.30;3.00;;;;;;;18.86;72.67;99289.70;88550;1274;24586;-75
2022/08/31 08:53:09;;;;;;;10.40;2.70;;;;;;;18.87;72.72;99288.61;88570;1276;98521;-75
2022/08/31 08:55:18;;;;;;;7.10;3.20;;;;;;;18.90;72.59;99290.33;88524;1274;22615;-76
2022/08/31 08:57:26;;;;;;;7.10;3.00;;;;;;;18.89;72.16;99287.75;88520;1274;22736;-75
2022/08/31 08:59:27;;;;;;;15.90;3.30;;;;;;;18.85;72.17;99283.75;88440;1274;97441;-74
2022/08/31 09:01:36;;;;;;;10.20;3.00;;;;;;;18.91;72.31;99286.92;88402;1277;22557;-74
2022/08/31 09:03:52;;;;;;;4.60;3.10;;;;;;;18.95;72.17;99285.30;88713;1277;24329;-76
2022/08/31 09:06:08;;;;;;;20.50;3.50;;;;;;;18.95;72.02;99285.73;88490;1276;99126;-74
2022/08/31 09:08:49;;;;;;;6.30;2.70;;;;;;;18.98;72.03;99287.76;88824;1274;25903;-75
2022/08/31 09:11:16;;;;;;;21.10;3.80;;;;;;;18.93;71.85;99286.63;88129;1281;98097;-74
2022/08/31 09:13:44;;;;;;;18.90;2.60;;;;;;;18.95;72.09;99280.58;88070;1280;25439;-74
2022/08/31 09:16:16;;;;;;;8.10;2.60;;;;;;;18.97;72.13;99280.20;88056;1281;23054;-75
2022/08/31 09:18:44;;;;;;;8.60;2.70;;;;;;;18.98;71.81;99278.19;87799;1284;98841;-74
2022/08/31 09:21:06;;;;;;;12.00;2.90;;;;;;;19.01;71.93;99276.30;88156;1279;22713;-75
2022/08/31 09:23:07;;;;;;;11.40;3.30;;;;;;;19.05;71.69;99273.32;88056;1280;98737;-74
2022/08/31 09:25:09;;;;;;;14.70;3.00;;;;;;;19.09;71.72;99271.92;88130;1279;22682;-76
2022/08/31 09:27:18;;;;;;;13.80;3.10;;;;;;;19.10;71.26;99270.11;88140;1281;22579;-74
2022/08/31 09:29:23;;;;;;;37.50;4.80;;;;;;;19.12;71.71;99269.08;88076;1284;98955;-75
2022/08/31 09:31:39;;;;;;;40.50;4.50;;;;;;;19.17;71.46;99268.45;88388;1281;23402;-76
2022/08/31 09:33:57;;;;;;;11.50;3.10;;;;;;;19.12;71.15;99262.07;88171;1281;22551;-75
2022/08/31 09:36:42;;;;;;;7.10;2.50;;;;;;;19.14;71.41;99267.66;88030;1284;99871;-75
2022/08/31 09:38:46;;;;;;;10.50;2.80;;;;;;;19.13;71.03;99260.55;87891;1281;24699;-75
2022/08/31 09:40:49;;;;;;;14.10;2.90;;;;;;;19.13;71.14;99259.35;87770;1283;98934;-75
2022/08/31 09:43:25;;;;;;;9.20;2.80;;;;;;;19.16;71.14;99260.31;88140;1281;22719;-76
2022/08/31 09:45:34;;;;;;;20.20;3.50;;;;;;;19.22;71.27;99261.48;88137;1281;22636;-75
2022/08/31 09:47:50;;;;;;;7.80;3.00;;;;;;;19.27;71.00;99265.38;88821;1277;98847;-75
2022/08/31 09:49:56;;;;;;;15.60;3.10;;;;;;;19.29;70.91;99261.51;88887;1276;22742;-74
2022/08/31 09:55:13;;;;;;;15.40;2.80;;;;;;;19.23;70.02;99260.55;88410;1274;22770;-75
2022/08/31 09:57:16;;;;;;;10.30;2.40;;;;;;;19.13;69.67;99260.79;88381;1276;25345;-75
2022/08/31 09:59:36;;;;;;;11.50;2.40;;;;;;;19.06;69.83;99255.81;88456;1274;99606;-75
2022/08/31 10:01:43;;;;;;;12.80;2.60;;;;;;;19.07;70.18;99256.66;88580;1276;22780;-75
2022/08/31 10:03:47;;;;;;;19.90;3.20;;;;;;;19.09;70.15;99251.65;88847;1276;24370;-74
2022/08/31 10:05:53;;;;;;;7.90;2.40;;;;;;;19.10;69.92;99255.34;88405;1275;99277;-75
2022/08/31 10:08:29;;;;;;;11.90;2.80;;;;;;;19.10;69.95;99252.99;88489;1275;22576;-75
2022/08/31 10:10:37;;;;;;;28.70;3.50;;;;;;;19.15;69.92;99251.04;88428;1276;27060;-77
2022/08/31 10:13:02;;;;;;;26.10;3.70;;;;;;;19.19;69.92;99250.15;87158;1275;1697958;-74
2022/08/31 10:15:14;;;;;;;9.70;3.20;;;;;;;19.19;69.56;99248.70;88599;1274;22593;-75
2022/08/31 10:17:24;;;;;;;6.20;2.60;;;;;;;19.20;69.69;99250.24;88411;1274;98747;-76
2022/08/31 10:19:50;;;;;;;16.90;3.00;;;;;;;19.21;69.31;99251.02;88855;1274;25275;-76
2022/08/31 10:22:00;;;;;;;11.30;2.60;;;;;;;19.24;69.58;99252.96;88489;1275;25388;-77
2022/08/31 10:24:37;;;;;;;;;;;;;;;;;;;;;
2022/08/31 10:26:52;;;;;;;12.40;2.80;;;;;;;19.20;68.79;99252.38;88431;1277;25909;-75
2022/08/31 10:28:59;;;;;;;19.20;2.60;;;;;;;19.28;69.13;99254.23;88618;1277;22722;-76
2022/08/31 10:31:22;;;;;;;5.30;1.90;;;;;;;19.38;68.83;99255.23;88387;1276;24280;-75
2022/08/31 10:35:02;;;;;;;8.70;2.50;;;;;;;19.36;67.98;99258.08;88450;1278;22817;-76
2022/08/31 10:35:59;;;;;;;13.80;2.30;;;;;;;19.33;67.94;99256.04;88450;1275;98703;-76
2022/08/31 10:38:31;;;;;;;10.70;2.30;;;;;;;19.31;68.05;99252.98;88538;1276;23972;-75
2022/08/31 10:40:49;;;;;;;4.60;1.80;;;;;;;19.31;67.98;99251.55;88503;1275;22720;-76
2022/08/31 10:43:08;;;;;;;6.00;2.30;;;;;;;19.31;67.91;99251.16;88528;1277;100248;-74
2022/08/31 10:45:21;;;;;;;4.80;1.80;;;;;;;19.34;67.84;99249.70;88467;1274;23427;-76
2022/08/31 10:47:27;;;;;;;9.30;1.80;;;;;;;19.38;68.24;99245.98;88144;1279;99550;-75
2022/08/31 10:49:29;;;;;;;14.00;2.20;;;;;;;19.44;68.15;99242.66;88368;1277;22656;-76
2022/08/31 10:52:01;;;;;;;5.10;1.80;;;;;;;19.47;68.11;99237.95;88395;1278;24415;-73